Time;durP1;ratioP1;P1;durP2;ratioP2;P2;SDS_P1;SDS_P2;PMS_P1;PMS_P2;Temp;Humidity;BMP_temperature;BMP_pressure;BME280_temperature;BME280_humidity;BME280_pressure;Samples;Min_cycle;Max_cycle;Signal;HPM_P1;HPM_P2
2024/04/19 00:01:53;;;;;;;;;;;4.60;99.90;;;3.61;100.00;98030.97;5435496;26;2673;-70
2024/04/19 00:04:20;;;;;;;;;;;4.60;99.90;;;3.52;100.00;98019.91;5436304;26;2744;-70
2024/04/19 00:06:47;;;;;;;;;;;4.60;99.90;;;3.47;100.00;98020.81;5428347;26;1416;-70
2024/04/19 00:09:14;;;;;;;;;;;4.60;99.90;;;3.65;100.00;98007.84;5429744;26;1389;-70
2024/04/19 00:11:41;;;;;;;;;;;4.70;99.90;;;3.63;100.00;98004.44;5435074;26;1292;-70
2024/04/19 00:14:08;;;;;;;;;;;4.70;99.90;;;3.59;100.00;98000.19;5434707;26;1486;-70
2024/04/19 00:16:35;;;;;;;;;;;4.70;99.90;;;3.58;100.00;97992.47;5434220;26;1464;-70
2024/04/19 00:19:02;;;;;;;;;;;4.70;99.90;;;3.71;100.00;97986.38;5428294;26;3641;-70
2024/04/19 00:21:29;;;;;;;;;;;4.70;99.90;;;3.70;100.00;97987.25;5433133;26;1898;-70
2024/04/19 00:23:57;;;;;;;;;;;4.80;99.90;;;3.76;100.00;97975.22;5435658;26;1340;-70
2024/04/19 00:26:24;;;;;;;;;;;4.90;99.90;;;3.90;100.00;97972.53;5436184;26;1454;-70
2024/04/19 00:28:51;;;;;;;;;;;4.90;99.90;;;3.86;100.00;97962.31;5434888;26;1563;-70
2024/04/19 00:31:18;;;;;;;;;;;5.00;99.90;;;3.89;100.00;97963.09;5432559;26;1359;-70
2024/04/19 00:33:45;;;;;;;;;;;5.00;99.90;;;3.85;100.00;97965.72;5428244;26;2353;-70
2024/04/19 00:36:12;;;;;;;;;;;5.10;99.90;;;3.98;100.00;97962.16;5431147;26;1438;-70
2024/04/19 00:38:39;;;;;;;;;;;5.10;99.90;;;4.01;100.00;97959.56;5428205;26;1447;-70
2024/04/19 00:41:06;;;;;;;;;;;5.10;99.90;;;3.93;100.00;97944.25;5427175;26;1830;-70
2024/04/19 00:43:32;;;;;;;;;;;5.10;99.90;;;3.82;100.00;97958.91;5428938;26;1372;-70
2024/04/19 00:45:59;;;;;;;;;;;5.10;99.90;;;3.86;100.00;97955.44;5432927;26;1433;-70
2024/04/19 00:48:27;;;;;;;;;;;5.10;99.90;;;3.87;100.00;97954.56;5430311;26;2842;-70
2024/04/19 00:50:57;;;;;;;;;;;5.10;99.90;;;3.86;100.00;97955.44;5429622;26;3092;-69
2024/04/19 00:53:32;;;;;;;;;;;5.10;99.90;;;3.87;100.00;97962.25;5432677;26;2983;-70
2024/04/19 00:56:01;;;;;;;;;;;5.00;99.90;;;3.83;100.00;97954.59;5428879;26;1364;-70
2024/04/19 00:58:28;;;;;;;;;;;5.10;99.90;;;3.87;100.00;97952.00;5429653;26;1419;-70
2024/04/19 01:00:59;;;;;;;;;;;5.10;99.90;;;3.86;100.00;97954.59;5428204;26;1889;-70
2024/04/19 01:03:26;;;;;;;;;;;5.10;99.90;;;3.82;100.00;97953.75;5430143;26;1519;-70
2024/04/19 01:05:53;;;;;;;;;;;5.10;99.90;;;3.79;100.00;97946.09;5434827;26;3655;-70
2024/04/19 01:08:20;;;;;;;;;;;5.10;99.90;;;3.69;100.00;97944.47;5433394;26;1776;-70
2024/04/19 01:10:47;;;;;;;;;;;5.10;99.90;;;3.70;100.00;97946.19;5433623;26;1330;-70
2024/04/19 01:13:14;;;;;;;;;;;5.00;99.90;;;3.73;100.00;97948.72;5431717;26;1546;-70
2024/04/19 01:15:41;;;;;;;;;;;5.00;99.90;;;3.66;100.00;97952.22;5431874;26;1456;-70
2024/04/19 01:18:08;;;;;;;;;;;4.90;99.90;;;3.60;100.00;97947.13;5429210;26;1413;-70
2024/04/19 01:20:35;;;;;;;;;;;4.90;99.90;;;3.47;100.00;97944.66;5432991;26;2405;-70
2024/04/19 01:23:03;;;;;;;;;;;4.80;99.90;;;3.56;100.00;97941.19;5431431;26;2069;-70
2024/04/19 01:25:33;;;;;;;;;;;4.90;99.90;;;3.40;100.00;97937.00;5427697;26;1363;-70
2024/04/19 01:28:00;;;;;;;;;;;4.80;99.90;;;3.55;100.00;97939.47;5436385;26;1362;-70
2024/04/19 01:30:27;;;;;;;;;;;4.80;99.90;;;3.50;100.00;97939.50;5436348;26;1336;-70
2024/04/19 01:32:54;;;;;;;;;;;4.80;99.90;;;3.50;100.00;97942.06;5431891;26;2310;-70
2024/04/19 01:35:21;;;;;;;;;;;4.80;99.90;;;3.49;100.00;97939.50;5435784;26;1467;-70
2024/04/19 01:37:49;;;;;;;;;;;4.70;99.90;;;3.54;100.00;97930.91;5431494;26;1328;-70
2024/04/19 01:40:16;;;;;;;;;;;4.70;99.90;;;3.50;100.00;97933.53;5433335;26;1344;-70
2024/04/19 01:42:43;;;;;;;;;;;4.60;99.90;;;3.53;100.00;97928.34;5431480;26;1892;-70
2024/04/19 01:45:10;;;;;;;;;;;4.60;99.90;;;3.41;100.00;97916.50;5437089;26;1290;-70
2024/04/19 01:47:40;;;;;;;;;;;4.50;99.90;;;3.40;100.00;97925.06;5405048;26;3772;-70
2024/04/19 01:50:07;;;;;;;;;;;4.50;99.90;;;3.42;100.00;97923.34;5435560;26;1400;-70
2024/04/19 01:52:34;;;;;;;;;;;4.60;99.90;;;3.46;100.00;97917.28;5431409;26;1490;-71
2024/04/19 01:55:02;;;;;;;;;;;4.60;99.90;;;3.44;100.00;97913.88;5435464;26;1407;-70
2024/04/19 01:57:30;;;;;;;;;;;4.70;99.90;;;3.48;100.00;97905.31;5431195;26;1282;-70
2024/04/19 01:59:57;;;;;;;;;;;4.70;99.90;;;3.48;100.00;97912.16;5428357;26;2326;-70
2024/04/19 02:02:26;;;;;;;;;;;4.80;99.90;;;3.43;100.00;97913.91;5437869;26;2752;-70
2024/04/19 02:04:54;;;;;;;;;;;4.70;99.90;;;3.54;100.00;97906.97;5432320;26;1566;-70
2024/04/19 02:07:21;;;;;;;;;;;4.60;99.90;;;3.63;100.00;97906.88;5434263;26;1273;-70
2024/04/19 02:09:48;;;;;;;;;;;4.50;99.90;;;3.56;100.00;97898.38;5432149;26;1446;-70
2024/04/19 02:12:15;;;;;;;;;;;4.70;99.90;;;3.51;100.00;97891.59;5433185;26;1313;-70
2024/04/19 02:14:42;;;;;;;;;;;4.70;99.90;;;3.41;100.00;97900.25;5438402;26;1462;-70
2024/04/19 02:17:08;;;;;;;;;;;4.60;99.90;;;3.43;100.00;97888.25;5431816;26;2383;-70
2024/04/19 02:19:39;;;;;;;;;;;4.60;99.90;;;3.44;100.00;97888.22;5433716;26;1524;-70
2024/04/19 02:22:06;;;;;;;;;;;4.50;99.90;;;3.50;100.00;97885.59;5428569;26;1885;-70
2024/04/19 02:24:34;;;;;;;;;;;4.60;99.90;;;3.46;100.00;97880.53;5432964;26;1525;-70
2024/04/19 02:27:04;;;;;;;;;;;4.50;99.90;;;3.41;100.00;97885.69;5433778;26;1343;-70
2024/04/19 02:32:16;;;;;;;;;;;4.50;99.90;;;3.40;100.00;97878.88;5435029;26;1665;-70
2024/04/19 02:34:43;;;;;;;;;;;4.50;99.90;;;3.44;100.00;97870.25;5427335;26;1470;-70
2024/04/19 02:37:13;;;;;;;;;;;4.50;99.90;;;3.39;100.00;97873.75;5430267;26;1390;-70
2024/04/19 02:39:40;;;;;;;;;;;4.50;99.90;;;3.30;100.00;97870.38;5430656;26;1424;-70
2024/04/19 02:42:07;;;;;;;;;;;4.50;99.90;;;3.40;100.00;97863.47;5431448;26;1880;-70
2024/04/19 02:44:34;;;;;;;;;;;4.50;99.90;;;3.33;100.00;97860.13;5428924;26;3814;-70
2024/04/19 02:47:01;;;;;;;;;;;4.50;99.90;;;3.38;100.00;97849.81;5426304;26;2983;-70
2024/04/19 02:49:28;;;;;;;;;;;4.40;99.90;;;3.38;100.00;97846.41;5428707;26;1327;-70
2024/04/19 02:51:54;;;;;;;;;;;4.40;99.90;;;3.44;100.00;97839.47;5425891;26;2762;-70
2024/04/19 02:54:22;;;;;;;;;;;4.40;99.90;;;3.33;100.00;97849.84;5432510;26;1538;-70
2024/04/19 02:56:49;;;;;;;;;;;4.40;99.90;;;3.38;100.00;97849.81;5433827;26;1554;-70
2024/04/19 02:59:16;;;;;;;;;;;4.40;99.90;;;3.43;100.00;97853.19;5431052;26;1437;-70
2024/04/19 03:01:43;;;;;;;;;;;4.40;99.90;;;3.45;100.00;97854.00;5428565;26;1837;-69
2024/04/19 03:04:10;;;;;;;;;;;4.40;99.90;;;3.44;100.00;97844.59;5430165;26;2281;-70
2024/04/19 03:06:37;;;;;;;;;;;4.40;99.90;;;3.45;100.00;97861.72;5429394;26;1367;-70
2024/04/19 03:09:04;;;;;;;;;;;4.40;99.90;;;3.40;100.00;97872.88;5431163;26;1351;-70
2024/04/19 03:11:30;;;;;;;;;;;4.30;99.90;;;3.36;100.00;97864.38;5429034;26;1416;-70
2024/04/19 03:13:57;;;;;;;;;;;4.40;99.90;;;3.38;100.00;97870.34;5423907;26;1399;-70
2024/04/19 03:16:24;;;;;;;;;;;4.40;99.90;;;3.33;100.00;97869.50;5428966;26;1360;-70
2024/04/19 03:18:51;;;;;;;;;;;4.50;99.90;;;3.22;100.00;97856.78;5429794;26;2311;-70
2024/04/19 03:21:18;;;;;;;;;;;4.40;99.90;;;3.26;100.00;97858.47;5426315;26;1472;-70
2024/04/19 03:23:45;;;;;;;;;;;4.40;99.90;;;3.31;100.00;97849.00;5429561;26;1845;-70
2024/04/19 03:26:12;;;;;;;;;;;4.40;99.90;;;3.37;100.00;97842.97;5434961;26;1409;-70
2024/04/19 03:28:39;;;;;;;;;;;4.40;99.90;;;3.31;100.00;97830.22;5435234;26;1421;-70
2024/04/19 03:31:08;;;;;;;;;;;4.50;99.90;;;3.35;100.00;97829.28;5432491;26;1379;-70
2024/04/19 03:33:35;;;;;;;;;;;4.50;99.90;;;3.39;100.00;97822.44;5432525;26;4217;-69
2024/04/19 03:36:04;;;;;;;;;;;4.50;99.90;;;3.35;100.00;97827.59;5432057;26;1365;-70
2024/04/19 03:38:31;;;;;;;;;;;4.50;99.90;;;3.36;100.00;97820.75;5426811;26;1479;-70
2024/04/19 03:40:58;;;;;;;;;;;4.50;99.90;;;3.38;100.00;97819.03;5432360;26;1463;-70
2024/04/19 03:43:32;;;;;;;;;;;4.50;99.90;;;3.46;100.00;97829.19;5425753;26;1920;-70
2024/04/19 03:46:01;;;;;;;;;;;4.50;99.90;;;3.48;100.00;97824.91;5427707;26;1547;-70
2024/04/19 03:48:29;;;;;;;;;;;4.50;99.90;;;3.56;100.00;97810.28;5437399;26;2584;-70
2024/04/19 03:50:56;;;;;;;;;;;4.60;99.90;;;3.45;100.00;97812.13;5437111;26;1367;-70
2024/04/19 03:53:23;;;;;;;;;;;4.60;99.90;;;3.35;100.00;97814.78;5431075;26;1510;-70
2024/04/19 03:55:50;;;;;;;;;;;4.60;99.90;;;3.46;100.00;97801.81;5432838;26;1486;-70
2024/04/19 03:58:17;;;;;;;;;;;4.50;99.90;;;3.31;100.00;97802.00;5432966;26;1399;-70
2024/04/19 04:00:43;;;;;;;;;;;4.50;99.90;;;3.37;100.00;97793.38;5435634;26;2783;-69
2024/04/19 04:03:10;;;;;;;;;;;4.40;99.90;;;3.35;100.00;97803.63;5429105;26;1893;-70
2024/04/19 04:05:37;;;;;;;;;;;4.40;99.90;;;3.50;100.00;97793.22;5428015;26;1373;-69
2024/04/19 04:08:04;;;;;;;;;;;4.40;99.90;;;3.49;100.00;97795.78;5426680;26;1354;-69
2024/04/19 04:10:31;;;;;;;;;;;4.50;99.90;;;3.45;100.00;97794.16;5431160;26;1386;-69
2024/04/19 04:12:58;;;;;;;;;;;4.50;99.90;;;3.39;100.00;97789.06;5422953;26;1463;-69
2024/04/19 04:15:26;;;;;;;;;;;4.50;99.90;;;3.46;100.00;97791.53;5428466;26;3779;-69
2024/04/19 04:17:52;;;;;;;;;;;4.40;99.90;;;3.48;100.00;97792.38;5434789;26;1359;-70
2024/04/19 04:20:19;;;;;;;;;;;4.40;99.90;;;3.37;100.00;97778.81;5435967;26;1364;-70
2024/04/19 04:22:46;;;;;;;;;;;4.40;99.90;;;3.38;100.00;97784.81;5431383;26;1896;-70
2024/04/19 04:25:13;;;;;;;;;;;4.40;99.90;;;3.37;100.00;97773.69;5429540;26;1455;-69
2024/04/19 04:27:40;;;;;;;;;;;4.40;99.90;;;3.31;100.00;97779.75;5425804;26;1411;-70
2024/04/19 04:30:08;;;;;;;;;;;4.40;99.90;;;3.39;100.00;97779.66;5429239;26;1358;-70
2024/04/19 04:32:35;;;;;;;;;;;4.50;99.90;;;3.34;100.00;97794.25;5431908;26;1575;-69
2024/04/19 04:35:01;;;;;;;;;;;4.40;99.90;;;3.44;100.00;97784.72;5425137;26;1438;-70
2024/04/19 04:37:30;;;;;;;;;;;4.50;99.90;;;3.39;100.00;97782.22;5432070;26;1356;-70
2024/04/19 04:39:57;;;;;;;;;;;4.50;99.90;;;3.45;100.00;97778.75;5426115;26;1320;-70
2024/04/19 04:42:24;;;;;;;;;;;4.50;99.90;;;3.41;100.00;97785.63;5434431;26;1846;-70
2024/04/19 04:44:51;;;;;;;;;;;4.50;99.90;;;3.44;100.00;97784.72;5440821;26;2177;-70
2024/04/19 04:47:18;;;;;;;;;;;4.50;99.90;;;3.45;100.00;97787.28;5431922;26;2718;-70
2024/04/19 04:49:45;;;;;;;;;;;4.50;99.90;;;3.44;100.00;97783.00;5436642;26;2925;-70
2024/04/19 04:52:12;;;;;;;;;;;4.60;99.90;;;3.45;100.00;97786.44;5426530;26;1852;-70
2024/04/19 04:54:39;;;;;;;;;;;4.60;99.90;;;3.47;100.00;97783.00;5430325;26;1581;-70
2024/04/19 04:57:07;;;;;;;;;;;4.50;99.90;;;3.49;100.00;97795.78;5429551;26;1406;-70
2024/04/19 04:59:35;;;;;;;;;;;4.50;99.90;;;3.44;100.00;97788.13;5430254;26;1586;-70
2024/04/19 05:02:03;;;;;;;;;;;4.50;99.90;;;3.44;100.00;97795.00;5432374;26;3912;-70
2024/04/19 05:04:32;;;;;;;;;;;4.60;99.90;;;3.44;100.00;97789.88;5425389;26;1402;-70
2024/04/19 05:06:59;;;;;;;;;;;4.50;99.90;;;3.42;100.00;97792.47;5428953;26;1334;-70
2024/04/19 05:09:26;;;;;;;;;;;4.50;99.90;;;3.48;100.00;97789.81;5434605;26;1596;-69
2024/04/19 05:11:53;;;;;;;;;;;4.50;99.90;;;3.40;100.00;97788.19;5431850;26;1368;-70
2024/04/19 05:14:19;;;;;;;;;;;4.40;99.90;;;3.42;100.00;97784.78;5428704;26;1389;-69
2024/04/19 05:16:46;;;;;;;;;;;4.40;99.90;;;3.35;100.00;97777.97;5433798;26;2375;-70
2024/04/19 05:19:13;;;;;;;;;;;4.40;99.90;;;3.36;100.00;97761.72;5436544;26;1318;-70
2024/04/19 05:21:40;;;;;;;;;;;4.40;99.90;;;3.33;100.00;97764.31;5433902;26;2647;-70
2024/04/19 05:24:08;;;;;;;;;;;4.40;99.90;;;3.37;100.00;97770.28;5435732;26;1833;-70
2024/04/19 05:26:35;;;;;;;;;;;4.40;99.90;;;3.26;100.00;97770.38;5430048;26;2288;-70
2024/04/19 05:29:02;;;;;;;;;;;4.30;99.90;;;3.29;100.00;97760.94;5430390;26;1407;-70
2024/04/19 05:31:28;;;;;;;;;;;4.30;99.90;;;3.35;100.00;97763.47;5431603;26;2636;-69
2024/04/19 05:33:55;;;;;;;;;;;4.40;99.90;;;3.34;100.00;97763.47;5442710;26;1490;-70
2024/04/19 05:36:22;;;;;;;;;;;4.30;99.90;;;3.36;100.00;97756.59;5426294;26;1449;-70
2024/04/19 05:38:49;;;;;;;;;;;4.30;99.90;;;3.39;100.00;97760.84;5440612;26;1360;-70
2024/04/19 05:41:16;;;;;;;;;;;4.30;99.90;;;3.33;100.00;97747.22;5432985;26;1272;-70
2024/04/19 05:43:46;;;;;;;;;;;4.30;99.90;;;3.33;100.00;97757.50;5406191;26;1879;-69
2024/04/19 05:46:13;;;;;;;;;;;4.30;99.90;;;3.32;100.00;97739.53;5425728;26;4187;-70
2024/04/19 05:48:40;;;;;;;;;;;4.30;99.90;;;3.33;100.00;97744.66;5430832;26;1225;-70
2024/04/19 05:51:07;;;;;;;;;;;4.30;99.90;;;3.36;100.00;97736.06;5436037;26;1383;-70
2024/04/19 05:53:34;;;;;;;;;;;4.30;99.90;;;3.38;100.00;97733.50;5402099;26;1197;-70
2024/04/19 05:56:01;;;;;;;;;;;4.30;99.90;;;3.40;100.00;97735.19;5428029;26;1317;-69
2024/04/19 05:58:28;;;;;;;;;;;4.40;99.90;;;3.33;100.00;97728.38;5431929;26;2720;-68
2024/04/19 06:00:55;;;;;;;;;;;4.40;99.90;;;3.43;100.00;97758.22;5431523;26;1485;-68
2024/04/19 06:03:22;;;;;;;;;;;4.40;99.90;;;3.50;100.00;97741.03;5434950;26;1849;-70
2024/04/19 06:05:49;;;;;;;;;;;4.50;99.90;;;3.53;100.00;97743.56;5431825;26;1272;-70
2024/04/19 06:08:16;;;;;;;;;;;4.40;99.90;;;3.51;100.00;97722.19;5413315;26;1349;-68
2024/04/19 06:10:43;;;;;;;;;;;4.40;99.90;;;3.54;100.00;97738.44;5434100;26;1631;-70
2024/04/19 06:13:10;;;;;;;;;;;4.40;99.90;;;3.54;100.00;97727.31;5431245;26;2406;-70
2024/04/19 06:15:40;;;;;;;;;;;4.40;99.90;;;3.51;100.00;97748.75;5436638;26;1714;-70
2024/04/19 06:18:08;;;;;;;;;;;4.40;99.90;;;3.55;100.00;97721.31;5429178;26;1335;-70
2024/04/19 06:20:40;;;;;;;;;;;4.50;99.90;;;3.55;100.00;97727.28;5431394;26;1379;-70
2024/04/19 06:23:07;;;;;;;;;;;4.50;99.90;;;3.59;100.00;97724.69;5430145;26;4054;-70
2024/04/19 06:25:34;;;;;;;;;;;4.50;99.90;;;3.55;100.00;97717.00;5438413;26;1555;-70
2024/04/19 06:28:00;;;;;;;;;;;4.40;99.90;;;3.50;100.00;97733.34;5428064;26;1411;-70
2024/04/19 06:30:27;;;;;;;;;;;4.50;99.90;;;3.48;100.00;97715.41;5433512;26;1403;-70
2024/04/19 06:32:54;;;;;;;;;;;4.50;99.90;;;3.48;100.00;97711.97;5429045;26;1590;-70
2024/04/19 06:35:22;;;;;;;;;;;4.40;99.90;;;3.51;100.00;97684.59;5431041;26;1274;-70
2024/04/19 06:37:49;;;;;;;;;;;4.50;99.90;;;3.45;100.00;97689.78;5430486;26;2370;-69
2024/04/19 06:40:16;;;;;;;;;;;4.40;99.90;;;3.49;100.00;97680.31;5432366;26;2813;-70
2024/04/19 06:42:42;;;;;;;;;;;4.40;99.90;;;3.52;100.00;97685.41;5428007;26;2980;-68
2024/04/19 06:45:10;;;;;;;;;;;4.50;99.90;;;3.51;100.00;97686.28;5429028;26;1380;-68
2024/04/19 06:47:37;;;;;;;;;;;4.50;99.90;;;3.54;100.00;97670.84;5425922;26;3074;-68
2024/04/19 06:50:05;;;;;;;;;;;4.50;99.90;;;3.53;100.00;97656.31;5429369;26;1238;-69
2024/04/19 06:52:32;;;;;;;;;;;4.50;99.90;;;3.50;100.00;97639.25;5432959;26;1261;-70
2024/04/19 06:54:59;;;;;;;;;;;4.50;99.90;;;3.49;100.00;97652.06;5428178;26;1294;-68
2024/04/19 06:57:25;;;;;;;;;;;4.50;99.90;;;3.48;100.00;97593.94;5434035;26;1386;-69
2024/04/19 06:59:52;;;;;;;;;;;4.50;99.90;;;3.52;100.00;97583.59;5430788;26;1442;-70
2024/04/19 07:02:36;;;;;;;;;;;4.50;99.90;;;3.48;100.00;97579.38;5423143;26;4073;-69
2024/04/19 07:05:04;;;;;;;;;;;4.50;99.90;;;3.44;100.00;97590.56;5421046;26;1290;-69
2024/04/19 07:07:31;;;;;;;;;;;4.50;99.90;;;3.50;100.00;97587.91;5436129;26;1125;-69
2024/04/19 07:09:57;;;;;;;;;;;4.50;99.90;;;3.50;100.00;97581.94;5428070;26;1569;-70
2024/04/19 07:12:27;;;;;;;;;;;4.50;99.90;;;3.55;100.00;97587.84;5427697;26;1309;-69
2024/04/19 07:14:54;;;;;;;;;;;4.60;99.90;;;3.62;100.00;97575.78;5429527;26;1258;-70
2024/04/19 07:17:22;;;;;;;;;;;4.50;99.90;;;3.65;100.00;97591.13;5432088;26;2676;-70
2024/04/19 07:19:48;;;;;;;;;;;4.60;99.90;;;3.69;100.00;97580.78;5427419;26;1143;-69
2024/04/19 07:22:17;;;;;;;;;;;4.70;99.90;;;3.72;100.00;97557.66;5428800;26;1365;-69
2024/04/19 07:24:44;;;;;;;;;;;4.70;99.90;;;3.79;100.00;97568.69;5425194;26;2712;-69
2024/04/19 07:27:11;;;;;;;;;;;4.80;99.90;;;3.74;100.00;97555.91;5425626;26;1438;-69
2024/04/19 07:29:39;;;;;;;;;;;4.80;99.90;;;3.81;100.00;97551.53;5429362;26;1111;-70
2024/04/19 07:32:06;;;;;;;;;;;4.80;99.90;;;3.82;100.00;97547.22;5424070;26;1277;-69
2024/04/19 07:34:33;;;;;;;;;;;4.70;99.90;;;3.87;100.00;97545.44;5428987;26;2548;-69
2024/04/19 07:37:00;;;;;;;;;;;4.80;99.90;;;3.84;100.00;97536.06;5431381;26;1210;-69
2024/04/19 07:39:26;;;;;;;;;;;4.70;99.90;;;3.81;100.00;97524.97;5400692;26;2340;-69
2024/04/19 07:41:55;;;;;;;;;;;4.80;99.90;;;3.77;100.00;97527.59;5427497;26;1379;-69
2024/04/19 07:44:22;;;;;;;;;;;4.80;99.90;;;3.77;100.00;97509.63;5430763;26;1891;-69
2024/04/19 07:46:49;;;;;;;;;;;4.70;99.90;;;3.84;100.00;97527.53;5426392;26;1156;-69
2024/04/19 07:49:16;;;;;;;;;;;4.70;99.90;;;3.78;100.00;97493.34;5431004;26;1611;-69
2024/04/19 07:51:43;;;;;;;;;;;4.80;99.90;;;3.89;100.00;97528.28;5430971;26;3710;-69
2024/04/19 07:54:11;;;;;;;;;;;4.70;99.90;;;3.84;100.00;97484.72;5434951;26;1834;-69
2024/04/19 07:56:41;;;;;;;;;;;4.80;99.90;;;3.91;100.00;97511.13;5456920;26;1405;-69
2024/04/19 07:59:08;;;;;;;;;;;4.80;99.90;;;3.87;100.00;97488.94;5427576;26;1503;-69
2024/04/19 08:01:35;;;;;;;;;;;4.90;99.90;;;3.93;100.00;97499.13;5438344;26;2441;-69
2024/04/19 08:04:02;;;;;;;;;;;4.80;99.90;;;3.97;100.00;97488.75;5425859;26;2723;-69
2024/04/19 08:06:30;;;;;;;;;;;4.90;99.90;;;3.96;100.00;97499.06;5425907;26;2804;-69
2024/04/19 08:08:57;;;;;;;;;;;4.90;99.90;;;3.96;100.00;97494.75;5424121;26;1427;-70
2024/04/19 08:11:24;;;;;;;;;;;4.90;99.90;;;3.95;100.00;97475.09;5441278;26;1265;-69
2024/04/19 08:13:51;;;;;;;;;;;5.00;99.90;;;3.91;100.00;97499.13;5426534;26;1294;-69
2024/04/19 08:16:18;;;;;;;;;;;5.00;99.90;;;4.02;100.00;97478.41;5427782;26;1190;-69
2024/04/19 08:18:45;;;;;;;;;;;4.90;99.90;;;4.05;100.00;97492.91;5429552;26;1119;-69
2024/04/19 08:21:12;;;;;;;;;;;4.90;99.90;;;4.05;100.00;97482.63;5426666;26;2612;-69
2024/04/19 08:23:39;;;;;;;;;;;5.00;99.90;;;4.13;100.00;97467.94;5427776;26;1840;-69
2024/04/19 08:26:06;;;;;;;;;;;5.00;99.90;;;4.23;100.00;97476.31;5436524;26;1490;-69
2024/04/19 08:28:33;;;;;;;;;;;5.10;99.90;;;4.30;100.00;97471.03;5430355;26;1201;-69
2024/04/19 08:31:00;;;;;;;;;;;5.10;99.90;;;4.24;100.00;97460.84;5428146;26;1469;-69
2024/04/19 08:33:27;;;;;;;;;;;5.20;99.90;;;4.22;100.00;97480.63;5433195;26;1249;-69
2024/04/19 08:35:58;;;;;;;;;;;5.10;99.90;;;4.18;100.00;97466.13;5426881;26;3959;-70
2024/04/19 08:38:25;;;;;;;;;;;5.10;99.90;;;4.21;100.00;97455.78;5431278;26;1408;-69
2024/04/19 08:40:59;;;;;;;;;;;5.20;99.90;;;4.10;100.00;97455.97;5427241;26;1161;-70
2024/04/19 08:43:31;;;;;;;;;;;5.10;99.90;;;4.16;100.00;97455.03;5434029;26;1892;-69
2024/04/19 08:45:59;;;;;;;;;;;5.20;99.90;;;4.16;100.00;97453.31;5435285;26;2534;-69
2024/04/19 08:48:31;;;;;;;;;;;5.10;99.90;;;4.13;100.00;97465.38;5425001;26;1307;-69
2024/04/19 08:50:59;;;;;;;;;;;5.10;99.90;;;4.20;100.00;97438.69;5431546;26;1362;-69
2024/04/19 08:53:29;;;;;;;;;;;5.20;99.90;;;4.24;100.00;97452.31;5439977;26;1178;-69
2024/04/19 08:55:56;;;;;;;;;;;5.20;99.90;;;4.28;100.00;97461.66;5430323;26;2719;-69
2024/04/19 08:58:23;;;;;;;;;;;5.20;99.90;;;4.26;100.00;97435.97;5426414;26;2659;-69
2024/04/19 09:00:50;;;;;;;;;;;5.20;99.90;;;4.25;100.00;97439.44;5434946;26;1559;-69
2024/04/19 09:03:17;;;;;;;;;;;5.20;99.90;;;4.29;100.00;97415.38;5430731;26;1883;-69
2024/04/19 09:05:44;;;;;;;;;;;5.20;99.90;;;4.43;100.00;97427.13;5431812;26;1567;-69
2024/04/19 09:08:11;;;;;;;;;;;5.20;99.90;;;4.35;100.00;97443.50;5433012;26;1395;-69
2024/04/19 09:10:38;;;;;;;;;;;5.20;99.90;;;4.33;100.00;97446.97;5431831;26;1618;-69
2024/04/19 09:13:05;;;;;;;;;;;5.20;99.90;;;4.36;100.00;97419.50;5419617;26;2405;-70
2024/04/19 09:15:32;;;;;;;;;;;5.30;99.90;;;4.33;100.00;97400.72;5424884;26;4176;-69
2024/04/19 09:18:00;;;;;;;;;;;5.20;99.90;;;4.48;100.00;97410.69;5432796;26;1123;-70
2024/04/19 09:20:27;;;;;;;;;;;5.30;99.90;;;4.51;100.00;97428.63;5437966;26;1183;-70
2024/04/19 09:22:54;;;;;;;;;;;5.30;99.90;;;4.43;100.00;97403.97;5425668;26;1206;-70
2024/04/19 09:25:21;;;;;;;;;;;5.40;99.90;;;4.47;100.00;97398.75;5432167;26;1850;-70
2024/04/19 09:27:48;;;;;;;;;;;5.40;99.90;;;4.56;100.00;97403.69;5401302;26;1376;-70
2024/04/19 09:30:16;;;;;;;;;;;5.40;99.90;;;4.38;100.00;97402.34;5434286;26;2605;-70
2024/04/19 09:32:45;;;;;;;;;;;5.40;99.90;;;4.48;100.00;97405.56;5438172;26;1746;-69
2024/04/19 09:35:13;;;;;;;;;;;5.40;99.90;;;4.51;100.00;97394.38;5443469;26;1477;-69
2024/04/19 09:37:42;;;;;;;;;;;5.40;99.90;;;4.43;100.00;97401.41;5430465;26;1920;-69
2024/04/19 09:40:10;;;;;;;;;;;5.40;99.90;;;4.45;100.00;97407.34;5435181;26;2113;-69
2024/04/19 09:42:38;;;;;;;;;;;5.30;99.90;;;4.53;100.00;97403.72;5428415;26;2495;-69
2024/04/19 09:45:08;;;;;;;;;;;5.40;99.90;;;4.63;100.00;97401.84;5440218;26;1837;-69
2024/04/19 09:47:35;;;;;;;;;;;5.40;99.90;;;4.57;100.00;97387.38;5433681;26;2067;-69
2024/04/19 09:50:03;;;;;;;;;;;5.30;99.90;;;4.60;100.00;97377.00;5436673;26;1594;-69
2024/04/19 09:52:30;;;;;;;;;;;5.40;99.90;;;4.76;100.00;97392.09;5432451;26;1612;-69
2024/04/19 09:55:10;;;;;;;;;;;5.40;99.90;;;4.65;100.00;97376.06;5431744;26;1468;-69
2024/04/19 09:57:39;;;;;;;;;;;5.40;99.90;;;4.63;100.00;97359.84;5431363;26;3917;-69
2024/04/19 10:00:28;;;;;;;;;;;5.50;99.90;;;4.44;100.00;97385.94;5411756;26;1586;-69
2024/04/19 10:02:57;;;;;;;;;;;5.40;99.90;;;4.53;100.00;97377.19;5430233;26;2791;-69
2024/04/19 10:05:25;;;;;;;;;;;5.40;99.90;;;4.41;100.00;97378.31;5429747;26;2956;-69
2024/04/19 10:07:52;;;;;;;;;;;5.40;99.90;;;4.44;100.00;97382.53;5430467;26;2923;-69
2024/04/19 10:10:19;;;;;;;;;;;5.50;99.90;;;4.54;100.00;97364.31;5436681;26;1627;-69
2024/04/19 10:12:46;;;;;;;;;;;5.40;99.90;;;4.52;100.00;97380.66;5427041;26;1515;-69
2024/04/19 10:15:13;;;;;;;;;;;5.40;99.90;;;4.55;100.00;97380.56;5423647;26;1320;-69
2024/04/19 10:17:40;;;;;;;;;;;5.30;99.90;;;4.51;100.00;97355.81;5426638;26;1475;-69
2024/04/19 10:20:10;;;;;;;;;;;5.30;99.90;;;4.39;100.00;97342.34;5429694;26;2349;-69
2024/04/19 10:22:40;;;;;;;;;;;5.30;99.90;;;4.35;100.00;97363.00;5427825;26;1599;-69
2024/04/19 10:25:07;;;;;;;;;;;5.20;99.90;;;4.29;100.00;97346.00;5430943;26;1838;-69
2024/04/19 10:27:34;;;;;;;;;;;5.20;99.90;;;4.41;100.00;97344.91;5431205;26;1422;-69
2024/04/19 10:30:05;;;;;;;;;;;5.30;99.90;;;4.51;100.00;97335.25;5432120;26;1363;-69
2024/04/19 10:32:39;;;;;;;;;;;5.40;99.90;;;4.46;100.00;97357.66;5426211;26;1693;-69
2024/04/19 10:35:11;;;;;;;;;;;5.40;99.90;;;4.44;100.00;97347.38;5430918;26;2456;-69
2024/04/19 10:37:38;;;;;;;;;;;5.50;99.90;;;4.52;100.00;97345.50;5433208;26;1404;-69
2024/04/19 10:40:05;;;;;;;;;;;5.40;99.90;;;4.65;100.00;97327.22;5438208;26;1359;-69
2024/04/19 10:42:32;;;;;;;;;;;5.40;99.90;;;4.56;100.00;97341.13;5435392;26;1323;-69
2024/04/19 10:44:59;;;;;;;;;;;5.40;99.90;;;4.48;100.00;97323.31;5425988;26;3746;-69
2024/04/19 10:47:26;;;;;;;;;;;5.40;99.90;;;4.53;100.00;97336.06;5431200;26;1806;-69
2024/04/19 10:49:53;;;;;;;;;;;5.40;99.90;;;4.53;100.00;97333.50;5428141;26;2704;-69
2024/04/19 10:52:22;;;;;;;;;;;5.40;99.90;;;4.54;100.00;97343.75;5428184;26;1764;-70
2024/04/19 10:54:49;;;;;;;;;;;5.40;99.90;;;4.51;100.00;97333.53;5431497;26;1472;-69
2024/04/19 10:57:16;;;;;;;;;;;5.40;99.90;;;4.54;100.00;97305.19;5442245;26;1265;-69
2024/04/19 10:59:43;;;;;;;;;;;5.40;99.90;;;4.48;100.00;97302.75;5426204;26;1460;-69
2024/04/19 11:02:12;;;;;;;;;;;5.50;99.90;;;4.49;100.00;97301.88;5429368;26;2255;-69
2024/04/19 11:04:40;;;;;;;;;;;5.50;99.90;;;4.57;100.00;97279.41;5439905;26;2718;-69
2024/04/19 11:07:07;;;;;;;;;;;5.60;99.90;;;4.63;100.00;97281.00;5433745;26;2926;-69
2024/04/19 11:09:34;;;;;;;;;;;5.60;99.90;;;4.61;100.00;97300.75;5405263;26;1548;-70
2024/04/19 11:12:01;;;;;;;;;;;5.60;99.90;;;4.65;100.00;97286.09;5426888;26;1590;-70
2024/04/19 11:14:29;;;;;;;;;;;5.60;99.90;;;4.58;100.00;97269.97;5435513;26;1246;-70
2024/04/19 11:16:55;;;;;;;;;;;5.50;99.90;;;4.66;100.00;97292.94;5428381;26;1760;-70
2024/04/19 11:19:23;;;;;;;;;;;5.50;99.90;;;4.65;100.00;97289.50;5432808;26;1861;-70
2024/04/19 11:21:50;;;;;;;;;;;5.50;99.90;;;4.70;100.00;97279.97;5428721;26;2249;-70
2024/04/19 11:24:18;;;;;;;;;;;5.60;99.90;;;4.80;100.00;97278.03;5441224;26;1852;-70
2024/04/19 11:26:46;;;;;;;;;;;5.60;99.90;;;4.71;100.00;97260.25;5430511;26;1262;-70
2024/04/19 11:29:13;;;;;;;;;;;5.70;99.90;;;4.77;100.00;97260.94;5438977;26;1133;-70
2024/04/19 11:31:40;;;;;;;;;;;5.70;99.90;;;4.92;100.00;97279.44;5427829;26;1123;-70
2024/04/19 11:34:07;;;;;;;;;;;5.70;99.90;;;4.97;100.00;97278.47;5429374;26;3669;-70
2024/04/19 11:36:36;;;;;;;;;;;5.60;99.90;;;4.86;100.00;97259.88;5431631;26;1485;-70
2024/04/19 11:39:03;;;;;;;;;;;5.70;99.90;;;4.91;100.00;97281.19;5430734;26;1651;-70